sensor_id;sensor_type;location;lat;lon;timestamp;P1;durP1;ratioP1;P2;durP2;ratioP2
76053;SDS011;64752;48.870;9.082;2023-02-28T00:00:29;5.15;;;2.10;;
76053;SDS011;64752;48.870;9.082;2023-02-28T00:02:55;3.70;;;2.27;;
76053;SDS011;64752;48.870;9.082;2023-02-28T00:05:21;6.93;;;2.17;;
76053;SDS011;64752;48.870;9.082;2023-02-28T00:07:47;5.82;;;2.60;;
76053;SDS011;64752;48.870;9.082;2023-02-28T00:10:14;6.68;;;2.38;;
76053;SDS011;64752;48.870;9.082;2023-02-28T00:12:39;4.57;;;1.98;;
76053;SDS011;64752;48.870;9.082;2023-02-28T00:15:07;5.67;;;2.47;;
76053;SDS011;64752;48.870;9.082;2023-02-28T00:17:33;6.63;;;2.83;;
76053;SDS011;64752;48.870;9.082;2023-02-28T00:19:59;5.47;;;2.83;;
76053;SDS011;64752;48.870;9.082;2023-02-28T00:22:37;6.45;;;2.33;;
76053;SDS011;64752;48.870;9.082;2023-02-28T00:25:03;6.33;;;3.10;;
76053;SDS011;64752;48.870;9.082;2023-02-28T00:27:28;7.22;;;2.45;;
76053;SDS011;64752;48.870;9.082;2023-02-28T00:29:54;3.70;;;2.20;;
76053;SDS011;64752;48.870;9.082;2023-02-28T00:32:19;3.57;;;2.30;;
76053;SDS011;64752;48.870;9.082;2023-02-28T00:34:44;3.43;;;2.13;;
76053;SDS011;64752;48.870;9.082;2023-02-28T00:37:09;5.93;;;2.70;;
76053;SDS011;64752;48.870;9.082;2023-02-28T00:39:37;7.15;;;2.58;;
76053;SDS011;64752;48.870;9.082;2023-02-28T00:42:02;7.63;;;3.30;;
76053;SDS011;64752;48.870;9.082;2023-02-28T00:44:28;5.77;;;3.33;;
76053;SDS011;64752;48.870;9.082;2023-02-28T00:46:53;8.43;;;2.53;;
76053;SDS011;64752;48.870;9.082;2023-02-28T00:49:19;6.50;;;3.03;;
76053;SDS011;64752;48.870;9.082;2023-02-28T00:51:44;8.17;;;3.20;;
76053;SDS011;64752;48.870;9.082;2023-02-28T00:54:10;5.83;;;3.27;;
76053;SDS011;64752;48.870;9.082;2023-02-28T00:56:36;5.68;;;2.78;;
76053;SDS011;64752;48.870;9.082;2023-02-28T00:59:01;6.93;;;2.95;;
76053;SDS011;64752;48.870;9.082;2023-02-28T01:01:26;6.10;;;2.92;;
76053;SDS011;64752;48.870;9.082;2023-02-28T01:03:52;6.57;;;3.03;;
76053;SDS011;64752;48.870;9.082;2023-02-28T01:06:17;5.03;;;3.10;;
76053;SDS011;64752;48.870;9.082;2023-02-28T01:08:42;4.70;;;2.80;;
76053;SDS011;64752;48.870;9.082;2023-02-28T01:11:08;5.05;;;3.20;;
76053;SDS011;64752;48.870;9.082;2023-02-28T01:13:34;6.22;;;3.38;;
76053;SDS011;64752;48.870;9.082;2023-02-28T01:15:59;4.90;;;3.00;;
76053;SDS011;64752;48.870;9.082;2023-02-28T01:18:24;5.40;;;3.00;;
76053;SDS011;64752;48.870;9.082;2023-02-28T01:20:50;5.90;;;3.37;;
76053;SDS011;64752;48.870;9.082;2023-02-28T01:25:42;5.88;;;3.50;;
76053;SDS011;64752;48.870;9.082;2023-02-28T01:28:07;7.05;;;3.55;;
76053;SDS011;64752;48.870;9.082;2023-02-28T01:30:32;6.93;;;3.13;;
76053;SDS011;64752;48.870;9.082;2023-02-28T01:32:58;6.70;;;3.20;;
76053;SDS011;64752;48.870;9.082;2023-02-28T01:35:23;6.07;;;3.03;;
76053;SDS011;64752;48.870;9.082;2023-02-28T01:37:48;6.40;;;3.57;;
76053;SDS011;64752;48.870;9.082;2023-02-28T01:40:14;7.50;;;3.30;;
76053;SDS011;64752;48.870;9.082;2023-02-28T01:42:39;7.73;;;3.40;;
76053;SDS011;64752;48.870;9.082;2023-02-28T01:47:34;6.22;;;3.92;;
76053;SDS011;64752;48.870;9.082;2023-02-28T01:50:01;8.68;;;3.40;;
76053;SDS011;64752;48.870;9.082;2023-02-28T01:52:27;8.85;;;3.40;;
76053;SDS011;64752;48.870;9.082;2023-02-28T01:54:54;6.53;;;3.53;;
76053;SDS011;64752;48.870;9.082;2023-02-28T01:57:21;7.00;;;3.17;;
76053;SDS011;64752;48.870;9.082;2023-02-28T01:59:48;8.27;;;4.10;;
76053;SDS011;64752;48.870;9.082;2023-02-28T02:02:15;6.68;;;4.22;;
76053;SDS011;64752;48.870;9.082;2023-02-28T02:04:43;7.18;;;3.72;;
76053;SDS011;64752;48.870;9.082;2023-02-28T02:07:11;7.10;;;3.70;;
76053;SDS011;64752;48.870;9.082;2023-02-28T02:09:37;6.72;;;3.97;;
76053;SDS011;64752;48.870;9.082;2023-02-28T02:12:06;6.50;;;3.80;;
76053;SDS011;64752;48.870;9.082;2023-02-28T02:14:39;9.38;;;3.97;;
76053;SDS011;64752;48.870;9.082;2023-02-28T02:17:19;7.00;;;3.95;;
76053;SDS011;64752;48.870;9.082;2023-02-28T02:27:23;7.83;;;3.20;;
76053;SDS011;64752;48.870;9.082;2023-02-28T02:30:07;7.65;;;4.20;;
76053;SDS011;64752;48.870;9.082;2023-02-28T02:35:11;8.20;;;4.20;;
76053;SDS011;64752;48.870;9.082;2023-02-28T02:37:49;6.13;;;3.78;;
76053;SDS011;64752;48.870;9.082;2023-02-28T02:40:16;7.13;;;3.92;;
76053;SDS011;64752;48.870;9.082;2023-02-28T02:47:39;8.32;;;3.92;;
76053;SDS011;64752;48.870;9.082;2023-02-28T02:50:06;9.68;;;3.80;;
76053;SDS011;64752;48.870;9.082;2023-02-28T02:52:40;6.47;;;3.95;;
76053;SDS011;64752;48.870;9.082;2023-02-28T02:55:07;6.88;;;3.72;;
76053;SDS011;64752;48.870;9.082;2023-02-28T02:57:37;10.25;;;4.63;;
76053;SDS011;64752;48.870;9.082;2023-02-28T03:00:04;8.07;;;4.03;;
76053;SDS011;64752;48.870;9.082;2023-02-28T03:02:33;8.18;;;3.53;;
76053;SDS011;64752;48.870;9.082;2023-02-28T03:05:00;6.00;;;3.90;;
76053;SDS011;64752;48.870;9.082;2023-02-28T03:07:26;6.68;;;4.13;;
76053;SDS011;64752;48.870;9.082;2023-02-28T03:09:52;6.88;;;4.43;;
76053;SDS011;64752;48.870;9.082;2023-02-28T03:12:18;7.88;;;4.20;;
76053;SDS011;64752;48.870;9.082;2023-02-28T03:25:31;7.40;;;4.32;;
76053;SDS011;64752;48.870;9.082;2023-02-28T03:30:56;7.82;;;4.63;;
76053;SDS011;64752;48.870;9.082;2023-02-28T03:33:24;8.90;;;3.95;;
76053;SDS011;64752;48.870;9.082;2023-02-28T03:35:53;7.57;;;4.57;;
76053;SDS011;64752;48.870;9.082;2023-02-28T03:40:46;8.13;;;4.57;;
76053;SDS011;64752;48.870;9.082;2023-02-28T03:45:54;7.28;;;4.53;;
76053;SDS011;64752;48.870;9.082;2023-02-28T03:48:22;7.13;;;4.50;;
76053;SDS011;64752;48.870;9.082;2023-02-28T03:50:49;8.38;;;4.35;;
76053;SDS011;64752;48.870;9.082;2023-02-28T03:53:25;7.13;;;4.40;;
76053;SDS011;64752;48.870;9.082;2023-02-28T03:55:59;7.32;;;4.43;;
76053;SDS011;64752;48.870;9.082;2023-02-28T04:01:07;9.45;;;4.43;;
76053;SDS011;64752;48.870;9.082;2023-02-28T04:03:34;8.98;;;4.95;;
76053;SDS011;64752;48.870;9.082;2023-02-28T04:06:00;8.63;;;4.93;;
76053;SDS011;64752;48.870;9.082;2023-02-28T04:08:25;8.87;;;4.40;;
76053;SDS011;64752;48.870;9.082;2023-02-28T04:13:35;7.25;;;4.53;;
76053;SDS011;64752;48.870;9.082;2023-02-28T04:16:00;6.90;;;4.70;;
76053;SDS011;64752;48.870;9.082;2023-02-28T04:18:25;7.93;;;4.50;;
76053;SDS011;64752;48.870;9.082;2023-02-28T04:20:50;9.33;;;5.20;;
76053;SDS011;64752;48.870;9.082;2023-02-28T04:23:15;9.97;;;4.63;;
76053;SDS011;64752;48.870;9.082;2023-02-28T04:25:41;8.13;;;4.10;;
76053;SDS011;64752;48.870;9.082;2023-02-28T04:28:06;8.67;;;4.70;;
76053;SDS011;64752;48.870;9.082;2023-02-28T04:30:31;10.83;;;5.10;;
76053;SDS011;64752;48.870;9.082;2023-02-28T04:32:57;9.68;;;5.57;;
76053;SDS011;64752;48.870;9.082;2023-02-28T04:35:23;7.03;;;4.27;;
76053;SDS011;64752;48.870;9.082;2023-02-28T04:37:48;7.50;;;4.47;;
76053;SDS011;64752;48.870;9.082;2023-02-28T04:40:13;6.60;;;4.30;;
76053;SDS011;64752;48.870;9.082;2023-02-28T04:42:38;11.23;;;4.72;;
76053;SDS011;64752;48.870;9.082;2023-02-28T04:45:04;10.60;;;5.27;;
76053;SDS011;64752;48.870;9.082;2023-02-28T04:47:29;8.13;;;4.33;;
76053;SDS011;64752;48.870;9.082;2023-02-28T04:49:54;10.23;;;5.17;;
76053;SDS011;64752;48.870;9.082;2023-02-28T04:52:20;7.13;;;4.47;;
76053;SDS011;64752;48.870;9.082;2023-02-28T04:54:45;10.10;;;5.07;;
76053;SDS011;64752;48.870;9.082;2023-02-28T04:57:10;9.73;;;4.60;;
76053;SDS011;64752;48.870;9.082;2023-02-28T04:59:36;9.23;;;4.78;;
76053;SDS011;64752;48.870;9.082;2023-02-28T05:02:01;8.45;;;4.57;;
76053;SDS011;64752;48.870;9.082;2023-02-28T05:04:31;7.50;;;4.65;;
76053;SDS011;64752;48.870;9.082;2023-02-28T05:06:59;10.23;;;4.70;;
76053;SDS011;64752;48.870;9.082;2023-02-28T05:09:24;10.57;;;4.63;;
76053;SDS011;64752;48.870;9.082;2023-02-28T05:11:49;7.57;;;4.50;;
76053;SDS011;64752;48.870;9.082;2023-02-28T05:14:14;9.70;;;4.90;;
76053;SDS011;64752;48.870;9.082;2023-02-28T05:16:39;7.20;;;4.23;;
76053;SDS011;64752;48.870;9.082;2023-02-28T05:19:05;10.93;;;4.97;;
76053;SDS011;64752;48.870;9.082;2023-02-28T05:21:31;8.50;;;4.70;;
76053;SDS011;64752;48.870;9.082;2023-02-28T05:23:58;9.68;;;4.97;;
76053;SDS011;64752;48.870;9.082;2023-02-28T05:26:24;8.45;;;5.30;;
76053;SDS011;64752;48.870;9.082;2023-02-28T05:28:49;9.02;;;5.15;;
76053;SDS011;64752;48.870;9.082;2023-02-28T05:31:14;9.90;;;4.80;;
76053;SDS011;64752;48.870;9.082;2023-02-28T05:33:40;8.07;;;4.83;;
76053;SDS011;64752;48.870;9.082;2023-02-28T05:36:05;8.75;;;5.18;;
76053;SDS011;64752;48.870;9.082;2023-02-28T05:38:31;8.05;;;5.07;;
76053;SDS011;64752;48.870;9.082;2023-02-28T05:40:56;9.80;;;5.47;;
76053;SDS011;64752;48.870;9.082;2023-02-28T05:43:21;14.37;;;5.97;;
76053;SDS011;64752;48.870;9.082;2023-02-28T05:45:47;8.10;;;4.93;;
76053;SDS011;64752;48.870;9.082;2023-02-28T05:48:12;8.80;;;5.30;;
76053;SDS011;64752;48.870;9.082;2023-02-28T05:50:37;9.03;;;4.67;;
76053;SDS011;64752;48.870;9.082;2023-02-28T05:53:02;8.77;;;4.80;;
76053;SDS011;64752;48.870;9.082;2023-02-28T05:55:28;10.23;;;5.47;;
76053;SDS011;64752;48.870;9.082;2023-02-28T05:57:53;11.40;;;5.80;;
76053;SDS011;64752;48.870;9.082;2023-02-28T06:00:19;7.75;;;4.60;;
76053;SDS011;64752;48.870;9.082;2023-02-28T06:02:44;9.68;;;5.20;;
76053;SDS011;64752;48.870;9.082;2023-02-28T06:05:13;9.97;;;5.50;;
76053;SDS011;64752;48.870;9.082;2023-02-28T06:07:38;8.75;;;5.07;;
76053;SDS011;64752;48.870;9.082;2023-02-28T06:10:03;8.63;;;4.53;;
76053;SDS011;64752;48.870;9.082;2023-02-28T06:12:28;9.43;;;4.88;;
76053;SDS011;64752;48.870;9.082;2023-02-28T06:14:54;8.27;;;4.93;;
76053;SDS011;64752;48.870;9.082;2023-02-28T06:17:19;9.55;;;5.88;;
76053;SDS011;64752;48.870;9.082;2023-02-28T06:19:44;12.00;;;5.80;;
76053;SDS011;64752;48.870;9.082;2023-02-28T06:22:10;13.93;;;6.10;;
76053;SDS011;64752;48.870;9.082;2023-02-28T06:24:35;11.67;;;5.50;;
76053;SDS011;64752;48.870;9.082;2023-02-28T06:27:00;9.82;;;5.68;;
76053;SDS011;64752;48.870;9.082;2023-02-28T06:29:30;11.60;;;5.97;;
76053;SDS011;64752;48.870;9.082;2023-02-28T06:31:55;9.57;;;5.43;;
76053;SDS011;64752;48.870;9.082;2023-02-28T06:34:20;13.13;;;5.77;;
76053;SDS011;64752;48.870;9.082;2023-02-28T06:36:46;10.67;;;5.20;;
76053;SDS011;64752;48.870;9.082;2023-02-28T06:39:11;14.25;;;5.93;;
76053;SDS011;64752;48.870;9.082;2023-02-28T06:41:36;11.35;;;5.57;;
76053;SDS011;64752;48.870;9.082;2023-02-28T06:44:02;13.47;;;5.73;;
76053;SDS011;64752;48.870;9.082;2023-02-28T06:46:28;10.20;;;5.03;;
76053;SDS011;64752;48.870;9.082;2023-02-28T06:48:53;10.87;;;5.73;;
76053;SDS011;64752;48.870;9.082;2023-02-28T06:51:19;9.07;;;5.77;;
76053;SDS011;64752;48.870;9.082;2023-02-28T06:53:47;9.15;;;5.55;;
76053;SDS011;64752;48.870;9.082;2023-02-28T06:56:13;13.47;;;5.73;;
76053;SDS011;64752;48.870;9.082;2023-02-28T06:58:38;8.48;;;4.70;;
76053;SDS011;64752;48.870;9.082;2023-02-28T07:01:04;15.20;;;6.10;;
76053;SDS011;64752;48.870;9.082;2023-02-28T07:03:34;11.50;;;6.07;;
76053;SDS011;64752;48.870;9.082;2023-02-28T07:06:00;14.75;;;7.00;;
76053;SDS011;64752;48.870;9.082;2023-02-28T07:08:25;12.10;;;6.13;;
76053;SDS011;64752;48.870;9.082;2023-02-28T07:10:52;12.40;;;5.70;;
76053;SDS011;64752;48.870;9.082;2023-02-28T07:13:18;9.43;;;5.90;;
76053;SDS011;64752;48.870;9.082;2023-02-28T07:15:43;11.30;;;5.93;;
76053;SDS011;64752;48.870;9.082;2023-02-28T07:18:08;10.77;;;6.05;;
76053;SDS011;64752;48.870;9.082;2023-02-28T07:20:34;9.30;;;5.53;;
76053;SDS011;64752;48.870;9.082;2023-02-28T07:22:59;11.43;;;5.90;;
76053;SDS011;64752;48.870;9.082;2023-02-28T07:25:25;9.43;;;5.97;;
76053;SDS011;64752;48.870;9.082;2023-02-28T07:27:51;10.20;;;5.68;;
76053;SDS011;64752;48.870;9.082;2023-02-28T07:30:16;10.30;;;6.00;;
76053;SDS011;64752;48.870;9.082;2023-02-28T07:32:42;10.23;;;6.03;;
76053;SDS011;64752;48.870;9.082;2023-02-28T07:35:07;11.10;;;6.00;;
76053;SDS011;64752;48.870;9.082;2023-02-28T07:37:33;11.43;;;5.30;;
76053;SDS011;64752;48.870;9.082;2023-02-28T07:40:05;12.88;;;6.45;;
76053;SDS011;64752;48.870;9.082;2023-02-28T07:42:37;9.60;;;5.78;;
76053;SDS011;64752;48.870;9.082;2023-02-28T07:45:06;10.00;;;6.10;;
76053;SDS011;64752;48.870;9.082;2023-02-28T07:47:31;10.35;;;5.43;;
76053;SDS011;64752;48.870;9.082;2023-02-28T07:49:57;11.57;;;5.97;;
76053;SDS011;64752;48.870;9.082;2023-02-28T07:52:22;10.23;;;6.50;;
76053;SDS011;64752;48.870;9.082;2023-02-28T07:54:51;12.40;;;6.65;;
76053;SDS011;64752;48.870;9.082;2023-02-28T07:57:16;12.40;;;6.53;;
76053;SDS011;64752;48.870;9.082;2023-02-28T07:59:47;10.10;;;6.38;;
76053;SDS011;64752;48.870;9.082;2023-02-28T08:02:13;10.65;;;6.05;;
76053;SDS011;64752;48.870;9.082;2023-02-28T08:04:39;15.90;;;6.80;;
76053;SDS011;64752;48.870;9.082;2023-02-28T08:07:06;12.65;;;7.20;;
76053;SDS011;64752;48.870;9.082;2023-02-28T08:09:32;13.23;;;6.47;;
76053;SDS011;64752;48.870;9.082;2023-02-28T08:11:57;11.00;;;6.22;;
76053;SDS011;64752;48.870;9.082;2023-02-28T08:14:30;12.00;;;6.13;;
76053;SDS011;64752;48.870;9.082;2023-02-28T08:16:56;12.13;;;7.20;;
76053;SDS011;64752;48.870;9.082;2023-02-28T08:19:21;11.07;;;6.67;;
76053;SDS011;64752;48.870;9.082;2023-02-28T08:21:49;12.68;;;7.40;;
76053;SDS011;64752;48.870;9.082;2023-02-28T08:24:15;10.60;;;6.13;;
76053;SDS011;64752;48.870;9.082;2023-02-28T08:26:40;14.73;;;6.90;;
76053;SDS011;64752;48.870;9.082;2023-02-28T08:29:08;11.20;;;6.70;;
76053;SDS011;64752;48.870;9.082;2023-02-28T08:31:37;10.18;;;6.70;;
76053;SDS011;64752;48.870;9.082;2023-02-28T08:34:06;11.93;;;6.53;;
76053;SDS011;64752;48.870;9.082;2023-02-28T08:36:34;9.88;;;5.97;;
76053;SDS011;64752;48.870;9.082;2023-02-28T08:39:00;10.85;;;6.22;;
76053;SDS011;64752;48.870;9.082;2023-02-28T08:41:25;13.27;;;6.80;;
76053;SDS011;64752;48.870;9.082;2023-02-28T08:43:51;11.13;;;6.43;;
76053;SDS011;64752;48.870;9.082;2023-02-28T08:46:16;13.97;;;7.03;;
76053;SDS011;64752;48.870;9.082;2023-02-28T08:48:42;11.40;;;6.47;;
76053;SDS011;64752;48.870;9.082;2023-02-28T08:51:09;13.40;;;7.00;;
76053;SDS011;64752;48.870;9.082;2023-02-28T08:56:00;17.73;;;7.45;;
76053;SDS011;64752;48.870;9.082;2023-02-28T08:58:26;11.35;;;6.82;;
76053;SDS011;64752;48.870;9.082;2023-02-28T09:00:51;12.23;;;7.00;;
76053;SDS011;64752;48.870;9.082;2023-02-28T09:03:17;15.80;;;6.85;;
76053;SDS011;64752;48.870;9.082;2023-02-28T09:08:37;12.05;;;7.20;;
76053;SDS011;64752;48.870;9.082;2023-02-28T09:11:03;14.40;;;7.43;;
76053;SDS011;64752;48.870;9.082;2023-02-28T09:13:29;11.05;;;6.35;;
76053;SDS011;64752;48.870;9.082;2023-02-28T09:15:56;11.43;;;7.30;;
76053;SDS011;64752;48.870;9.082;2023-02-28T09:18:22;11.20;;;6.72;;
76053;SDS011;64752;48.870;9.082;2023-02-28T09:20:48;10.75;;;7.47;;
76053;SDS011;64752;48.870;9.082;2023-02-28T09:23:13;14.17;;;7.80;;
76053;SDS011;64752;48.870;9.082;2023-02-28T09:25:45;11.75;;;7.25;;
76053;SDS011;64752;48.870;9.082;2023-02-28T09:28:13;12.40;;;7.53;;
76053;SDS011;64752;48.870;9.082;2023-02-28T09:30:43;10.73;;;6.30;;
76053;SDS011;64752;48.870;9.082;2023-02-28T09:33:09;11.32;;;6.65;;
76053;SDS011;64752;48.870;9.082;2023-02-28T09:35:34;11.57;;;7.57;;
76053;SDS011;64752;48.870;9.082;2023-02-28T09:38:02;12.73;;;7.85;;
76053;SDS011;64752;48.870;9.082;2023-02-28T09:40:27;12.27;;;7.78;;
76053;SDS011;64752;48.870;9.082;2023-02-28T09:42:54;12.98;;;7.60;;
76053;SDS011;64752;48.870;9.082;2023-02-28T09:47:45;9.88;;;6.28;;
76053;SDS011;64752;48.870;9.082;2023-02-28T09:52:57;10.63;;;7.43;;
76053;SDS011;64752;48.870;9.082;2023-02-28T09:55:31;12.07;;;6.80;;
76053;SDS011;64752;48.870;9.082;2023-02-28T09:57:58;11.25;;;7.63;;
76053;SDS011;64752;48.870;9.082;2023-02-28T10:00:28;14.35;;;7.22;;
76053;SDS011;64752;48.870;9.082;2023-02-28T10:03:02;13.82;;;7.22;;
76053;SDS011;64752;48.870;9.082;2023-02-28T10:05:33;11.77;;;7.60;;
76053;SDS011;64752;48.870;9.082;2023-02-28T10:08:14;15.90;;;8.32;;
76053;SDS011;64752;48.870;9.082;2023-02-28T10:10:42;13.98;;;7.50;;
76053;SDS011;64752;48.870;9.082;2023-02-28T10:13:29;11.80;;;7.75;;
76053;SDS011;64752;48.870;9.082;2023-02-28T10:15:58;11.60;;;7.78;;
76053;SDS011;64752;48.870;9.082;2023-02-28T10:18:26;11.32;;;7.38;;
76053;SDS011;64752;48.870;9.082;2023-02-28T10:20:52;11.48;;;7.60;;
76053;SDS011;64752;48.870;9.082;2023-02-28T10:23:22;12.32;;;7.43;;
76053;SDS011;64752;48.870;9.082;2023-02-28T10:25:57;10.48;;;7.18;;
76053;SDS011;64752;48.870;9.082;2023-02-28T10:28:24;12.48;;;7.22;;
76053;SDS011;64752;48.870;9.082;2023-02-28T10:30:51;11.88;;;7.85;;
76053;SDS011;64752;48.870;9.082;2023-02-28T10:33:37;11.52;;;7.50;;
76053;SDS011;64752;48.870;9.082;2023-02-28T10:36:02;11.20;;;7.38;;
76053;SDS011;64752;48.870;9.082;2023-02-28T10:38:34;13.30;;;7.85;;
76053;SDS011;64752;48.870;9.082;2023-02-28T10:41:07;13.07;;;8.00;;
76053;SDS011;64752;48.870;9.082;2023-02-28T10:43:33;14.20;;;7.25;;
76053;SDS011;64752;48.870;9.082;2023-02-28T10:48:29;17.52;;;7.65;;
76053;SDS011;64752;48.870;9.082;2023-02-28T10:50:55;12.30;;;7.65;;
76053;SDS011;64752;48.870;9.082;2023-02-28T10:58:26;12.98;;;7.45;;
76053;SDS011;64752;48.870;9.082;2023-02-28T11:00:51;12.27;;;7.80;;
76053;SDS011;64752;48.870;9.082;2023-02-28T11:03:31;11.98;;;7.05;;
76053;SDS011;64752;48.870;9.082;2023-02-28T11:05:57;13.75;;;7.45;;
76053;SDS011;64752;48.870;9.082;2023-02-28T11:08:22;12.52;;;7.95;;
76053;SDS011;64752;48.870;9.082;2023-02-28T11:10:58;13.02;;;8.05;;
76053;SDS011;64752;48.870;9.082;2023-02-28T11:13:27;9.90;;;6.80;;
76053;SDS011;64752;48.870;9.082;2023-02-28T11:15:54;10.75;;;7.07;;
76053;SDS011;64752;48.870;9.082;2023-02-28T11:20:55;12.88;;;7.28;;
76053;SDS011;64752;48.870;9.082;2023-02-28T11:23:22;9.45;;;6.65;;
76053;SDS011;64752;48.870;9.082;2023-02-28T11:25:51;11.68;;;7.30;;
76053;SDS011;64752;48.870;9.082;2023-02-28T11:31:00;11.52;;;7.25;;
76053;SDS011;64752;48.870;9.082;2023-02-28T11:35:51;10.93;;;6.90;;
76053;SDS011;64752;48.870;9.082;2023-02-28T11:38:17;10.80;;;7.22;;
76053;SDS011;64752;48.870;9.082;2023-02-28T11:46:02;10.35;;;6.85;;
76053;SDS011;64752;48.870;9.082;2023-02-28T11:53:49;11.05;;;6.65;;
76053;SDS011;64752;48.870;9.082;2023-02-28T11:59:02;11.30;;;6.78;;
76053;SDS011;64752;48.870;9.082;2023-02-28T12:06:49;10.50;;;6.90;;
76053;SDS011;64752;48.870;9.082;2023-02-28T12:11:57;9.27;;;6.72;;
76053;SDS011;64752;48.870;9.082;2023-02-28T12:26:50;9.20;;;6.70;;
76053;SDS011;64752;48.870;9.082;2023-02-28T12:29:19;7.90;;;6.05;;
76053;SDS011;64752;48.870;9.082;2023-02-28T12:31:46;11.60;;;7.15;;
76053;SDS011;64752;48.870;9.082;2023-02-28T12:34:19;10.82;;;7.20;;
76053;SDS011;64752;48.870;9.082;2023-02-28T12:36:45;11.57;;;7.03;;
76053;SDS011;64752;48.870;9.082;2023-02-28T12:42:03;10.23;;;6.30;;
76053;SDS011;64752;48.870;9.082;2023-02-28T12:46:59;9.82;;;6.75;;
76053;SDS011;64752;48.870;9.082;2023-02-28T12:51:50;10.25;;;6.80;;
76053;SDS011;64752;48.870;9.082;2023-02-28T12:57:36;9.98;;;6.18;;
76053;SDS011;64752;48.870;9.082;2023-02-28T13:00:01;8.23;;;5.95;;
76053;SDS011;64752;48.870;9.082;2023-02-28T13:13:05;10.60;;;6.07;;
76053;SDS011;64752;48.870;9.082;2023-02-28T13:15:30;9.63;;;6.45;;
76053;SDS011;64752;48.870;9.082;2023-02-28T13:17:59;9.82;;;6.45;;
76053;SDS011;64752;48.870;9.082;2023-02-28T13:20:27;9.18;;;6.10;;
76053;SDS011;64752;48.870;9.082;2023-02-28T13:22:54;10.50;;;7.10;;
76053;SDS011;64752;48.870;9.082;2023-02-28T13:27:52;11.13;;;6.95;;
76053;SDS011;64752;48.870;9.082;2023-02-28T13:35:50;9.75;;;6.70;;
76053;SDS011;64752;48.870;9.082;2023-02-28T13:38:32;13.23;;;6.43;;
76053;SDS011;64752;48.870;9.082;2023-02-28T13:41:26;8.80;;;6.45;;
76053;SDS011;64752;48.870;9.082;2023-02-28T13:46:28;9.85;;;6.97;;
76053;SDS011;64752;48.870;9.082;2023-02-28T13:48:53;8.80;;;6.47;;
76053;SDS011;64752;48.870;9.082;2023-02-28T13:51:34;10.13;;;6.82;;
76053;SDS011;64752;48.870;9.082;2023-02-28T13:54:13;10.63;;;7.13;;
76053;SDS011;64752;48.870;9.082;2023-02-28T13:56:48;9.23;;;6.75;;
76053;SDS011;64752;48.870;9.082;2023-02-28T13:59:22;11.35;;;6.85;;
76053;SDS011;64752;48.870;9.082;2023-02-28T14:02:01;10.63;;;6.90;;
76053;SDS011;64752;48.870;9.082;2023-02-28T14:07:02;10.43;;;7.22;;
76053;SDS011;64752;48.870;9.082;2023-02-28T14:09:35;11.02;;;7.50;;
76053;SDS011;64752;48.870;9.082;2023-02-28T14:17:14;10.00;;;6.90;;
76053;SDS011;64752;48.870;9.082;2023-02-28T14:19:41;9.98;;;6.95;;
76053;SDS011;64752;48.870;9.082;2023-02-28T14:30:11;10.07;;;6.60;;
76053;SDS011;64752;48.870;9.082;2023-02-28T14:32:47;9.52;;;6.53;;
76053;SDS011;64752;48.870;9.082;2023-02-28T14:37:58;9.40;;;6.47;;
76053;SDS011;64752;48.870;9.082;2023-02-28T14:42:59;9.73;;;6.40;;
76053;SDS011;64752;48.870;9.082;2023-02-28T14:45:25;10.38;;;7.55;;
76053;SDS011;64752;48.870;9.082;2023-02-28T14:47:51;11.05;;;7.65;;
76053;SDS011;64752;48.870;9.082;2023-02-28T14:50:21;12.10;;;7.53;;
76053;SDS011;64752;48.870;9.082;2023-02-28T14:52:47;12.23;;;8.20;;
76053;SDS011;64752;48.870;9.082;2023-02-28T14:55:14;9.93;;;7.43;;
76053;SDS011;64752;48.870;9.082;2023-02-28T14:57:41;11.43;;;8.20;;
76053;SDS011;64752;48.870;9.082;2023-02-28T15:02:37;10.25;;;6.82;;
76053;SDS011;64752;48.870;9.082;2023-02-28T15:07:34;11.55;;;7.35;;
76053;SDS011;64752;48.870;9.082;2023-02-28T15:12:34;9.60;;;6.85;;
76053;SDS011;64752;48.870;9.082;2023-02-28T15:15:00;12.05;;;8.63;;
76053;SDS011;64752;48.870;9.082;2023-02-28T15:17:25;12.00;;;6.90;;
76053;SDS011;64752;48.870;9.082;2023-02-28T15:19:54;10.98;;;7.85;;
76053;SDS011;64752;48.870;9.082;2023-02-28T15:22:31;12.10;;;7.97;;
76053;SDS011;64752;48.870;9.082;2023-02-28T15:25:00;11.13;;;8.02;;
76053;SDS011;64752;48.870;9.082;2023-02-28T15:27:29;11.13;;;7.72;;
76053;SDS011;64752;48.870;9.082;2023-02-28T15:30:00;9.45;;;7.18;;
76053;SDS011;64752;48.870;9.082;2023-02-28T15:34:51;10.70;;;7.83;;
76053;SDS011;64752;48.870;9.082;2023-02-28T15:42:57;12.00;;;8.30;;
76053;SDS011;64752;48.870;9.082;2023-02-28T15:45:26;12.98;;;8.70;;
76053;SDS011;64752;48.870;9.082;2023-02-28T15:47:52;15.45;;;8.15;;
76053;SDS011;64752;48.870;9.082;2023-02-28T15:50:19;11.27;;;7.75;;
76053;SDS011;64752;48.870;9.082;2023-02-28T15:52:45;14.57;;;8.48;;
76053;SDS011;64752;48.870;9.082;2023-02-28T15:55:26;13.32;;;7.82;;
76053;SDS011;64752;48.870;9.082;2023-02-28T15:57:53;12.90;;;7.72;;
76053;SDS011;64752;48.870;9.082;2023-02-28T16:00:20;11.10;;;7.82;;
76053;SDS011;64752;48.870;9.082;2023-02-28T16:02:45;12.85;;;7.88;;
76053;SDS011;64752;48.870;9.082;2023-02-28T16:10:03;14.85;;;8.18;;
76053;SDS011;64752;48.870;9.082;2023-02-28T16:12:29;15.20;;;8.85;;
76053;SDS011;64752;48.870;9.082;2023-02-28T16:14:56;12.82;;;8.20;;
76053;SDS011;64752;48.870;9.082;2023-02-28T16:17:26;11.05;;;8.00;;
76053;SDS011;64752;48.870;9.082;2023-02-28T16:19:52;13.73;;;9.27;;
76053;SDS011;64752;48.870;9.082;2023-02-28T16:22:17;14.50;;;9.68;;
76053;SDS011;64752;48.870;9.082;2023-02-28T16:24:42;14.60;;;9.30;;
76053;SDS011;64752;48.870;9.082;2023-02-28T16:27:21;16.50;;;9.52;;
76053;SDS011;64752;48.870;9.082;2023-02-28T16:29:51;13.10;;;8.30;;
76053;SDS011;64752;48.870;9.082;2023-02-28T16:32:17;13.32;;;8.35;;
76053;SDS011;64752;48.870;9.082;2023-02-28T16:34:43;15.90;;;8.27;;
76053;SDS011;64752;48.870;9.082;2023-02-28T16:37:15;14.27;;;8.97;;
76053;SDS011;64752;48.870;9.082;2023-02-28T16:39:41;12.35;;;8.57;;
76053;SDS011;64752;48.870;9.082;2023-02-28T16:42:09;15.67;;;8.63;;
76053;SDS011;64752;48.870;9.082;2023-02-28T16:44:35;14.90;;;8.98;;
76053;SDS011;64752;48.870;9.082;2023-02-28T16:47:01;13.45;;;9.43;;
76053;SDS011;64752;48.870;9.082;2023-02-28T16:49:27;13.65;;;9.48;;
76053;SDS011;64752;48.870;9.082;2023-02-28T16:51:52;12.25;;;8.15;;
76053;SDS011;64752;48.870;9.082;2023-02-28T16:54:17;16.98;;;9.65;;
76053;SDS011;64752;48.870;9.082;2023-02-28T16:56:44;17.20;;;9.25;;
76053;SDS011;64752;48.870;9.082;2023-02-28T16:59:09;13.95;;;9.18;;
76053;SDS011;64752;48.870;9.082;2023-02-28T17:01:35;15.88;;;10.48;;
76053;SDS011;64752;48.870;9.082;2023-02-28T17:04:01;18.67;;;10.68;;
76053;SDS011;64752;48.870;9.082;2023-02-28T17:06:27;17.90;;;10.55;;
76053;SDS011;64752;48.870;9.082;2023-02-28T17:11:18;13.93;;;8.63;;
76053;SDS011;64752;48.870;9.082;2023-02-28T17:13:43;15.52;;;9.35;;
76053;SDS011;64752;48.870;9.082;2023-02-28T17:16:13;15.65;;;9.68;;
76053;SDS011;64752;48.870;9.082;2023-02-28T17:18:41;14.05;;;9.25;;
76053;SDS011;64752;48.870;9.082;2023-02-28T17:21:10;15.68;;;10.23;;
76053;SDS011;64752;48.870;9.082;2023-02-28T17:23:37;15.90;;;10.13;;
76053;SDS011;64752;48.870;9.082;2023-02-28T17:26:02;18.40;;;9.73;;
76053;SDS011;64752;48.870;9.082;2023-02-28T17:28:31;17.15;;;10.02;;
76053;SDS011;64752;48.870;9.082;2023-02-28T17:30:56;14.63;;;10.32;;
76053;SDS011;64752;48.870;9.082;2023-02-28T17:33:22;17.27;;;10.50;;
76053;SDS011;64752;48.870;9.082;2023-02-28T17:35:47;17.10;;;10.30;;
76053;SDS011;64752;48.870;9.082;2023-02-28T17:38:16;16.35;;;9.80;;
76053;SDS011;64752;48.870;9.082;2023-02-28T17:40:42;18.08;;;10.35;;